createdAt,value
2018-06-30T00:01:28.784Z,23.50
2018-06-30T00:03:56.520Z,23.40
2018-06-30T00:06:25.428Z,23.40
2018-06-30T00:08:53.813Z,23.40
2018-06-30T00:11:21.456Z,23.30
2018-06-30T00:13:49.208Z,23.30
2018-06-30T00:16:16.828Z,23.30
2018-06-30T00:18:44.461Z,23.30
2018-06-30T00:21:12.195Z,23.30
2018-06-30T00:23:40.528Z,23.30
2018-06-30T00:26:08.369Z,23.20
2018-06-30T00:28:36.028Z,23.20
2018-06-30T00:31:03.964Z,23.20
2018-06-30T00:35:59.312Z,23.10
2018-06-30T00:38:26.930Z,23.10
2018-06-30T00:40:55.189Z,23.00
2018-06-30T00:43:22.826Z,23.00
2018-06-30T00:45:50.559Z,22.90
2018-06-30T00:48:18.289Z,22.90
2018-06-30T00:50:45.939Z,22.80
2018-06-30T00:53:13.620Z,22.80
2018-06-30T00:55:41.308Z,22.80
2018-06-30T00:58:09.440Z,22.70
2018-06-30T01:00:37.996Z,22.70
2018-06-30T01:03:05.669Z,22.70
2018-06-30T01:08:01.099Z,22.60
2018-06-30T01:10:28.756Z,22.60
2018-06-30T01:12:56.378Z,22.60
2018-06-30T01:15:24.076Z,22.60
2018-06-30T01:17:51.825Z,22.50
2018-06-30T01:20:19.524Z,22.50
2018-06-30T01:22:47.244Z,22.50
2018-06-30T01:25:14.923Z,22.50
2018-06-30T01:27:42.708Z,22.50
2018-06-30T01:30:11.570Z,22.40
2018-06-30T01:32:39.724Z,22.40
2018-06-30T01:35:14.178Z,22.40
2018-06-30T01:37:41.877Z,22.40
2018-06-30T01:40:09.499Z,22.40
2018-06-30T01:42:37.099Z,22.30
2018-06-30T01:45:05.617Z,22.30
2018-06-30T01:47:33.328Z,22.30
2018-06-30T01:50:01.052Z,22.30
2018-06-30T01:52:28.821Z,22.20
2018-06-30T01:54:56.487Z,22.20
2018-06-30T01:57:24.092Z,22.20
2018-06-30T01:59:51.720Z,22.20
2018-06-30T02:02:19.551Z,22.20
2018-06-30T02:04:47.232Z,22.10
2018-06-30T02:07:14.964Z,22.10
2018-06-30T02:09:42.840Z,22.00
2018-06-30T02:12:10.453Z,21.90
2018-06-30T02:14:38.075Z,21.90
2018-06-30T02:17:05.675Z,21.80
2018-06-30T02:19:33.268Z,21.80
2018-06-30T02:22:00.928Z,21.70
2018-06-30T02:27:02.794Z,21.70
2018-06-30T02:29:30.396Z,21.60
2018-06-30T02:31:58.308Z,21.60
2018-06-30T02:34:25.960Z,21.60
2018-06-30T02:36:53.655Z,21.50
2018-06-30T02:39:21.302Z,21.50
2018-06-30T02:41:48.905Z,21.50
2018-06-30T02:44:16.557Z,21.50
2018-06-30T02:46:44.165Z,21.40
2018-06-30T02:49:11.864Z,21.40
2018-06-30T02:51:39.471Z,21.40
2018-06-30T02:54:07.132Z,21.30
2018-06-30T02:56:34.733Z,21.30
2018-06-30T02:59:02.402Z,21.20
2018-06-30T03:01:30.014Z,21.20
2018-06-30T03:03:57.657Z,21.10
2018-06-30T03:06:25.277Z,21.10
2018-06-30T03:08:52.867Z,21.00
2018-06-30T03:11:20.492Z,21.00
2018-06-30T03:13:48.095Z,20.90
2018-06-30T03:16:16.795Z,20.90
2018-06-30T03:18:45.463Z,20.80
2018-06-30T03:21:13.090Z,20.80
2018-06-30T03:23:40.782Z,20.70
2018-06-30T03:26:15.277Z,20.70
2018-06-30T03:28:42.890Z,20.60
2018-06-30T03:31:10.527Z,20.50
2018-06-30T03:33:38.116Z,20.40
2018-06-30T03:36:05.854Z,20.40
2018-06-30T03:38:33.485Z,20.30
2018-06-30T03:41:01.091Z,20.20
2018-06-30T03:43:28.702Z,20.10
2018-06-30T03:45:56.465Z,20.10
2018-06-30T03:48:24.121Z,20.10
2018-06-30T03:50:51.727Z,20.00
2018-06-30T03:53:19.342Z,20.00
2018-06-30T03:55:47.038Z,20.00
2018-06-30T03:58:14.645Z,19.90
2018-06-30T04:00:42.270Z,19.90
2018-06-30T04:03:09.889Z,19.80
2018-06-30T04:05:37.540Z,19.80
2018-06-30T04:08:05.215Z,19.80
2018-06-30T04:10:32.821Z,19.80
2018-06-30T04:13:00.474Z,19.70
2018-06-30T04:15:28.061Z,19.70
2018-06-30T04:17:55.680Z,19.70
2018-06-30T04:20:23.305Z,19.60
2018-06-30T04:22:50.901Z,19.60
2018-06-30T04:25:18.555Z,19.60
2018-06-30T04:27:46.174Z,19.50
2018-06-30T04:30:13.802Z,19.50
2018-06-30T04:32:41.460Z,19.40
2018-06-30T04:35:09.184Z,19.40
2018-06-30T04:37:36.796Z,19.40
2018-06-30T04:40:04.474Z,19.30
2018-06-30T04:42:32.104Z,19.20
2018-06-30T04:44:59.784Z,19.20
2018-06-30T04:47:27.604Z,19.20
2018-06-30T04:49:55.337Z,19.10
2018-06-30T04:52:22.996Z,19.10
2018-06-30T04:54:50.659Z,19.10
2018-06-30T04:57:18.260Z,19.00
2018-06-30T04:59:45.899Z,19.00
2018-06-30T05:02:13.528Z,19.00
2018-06-30T05:04:41.335Z,18.90
2018-06-30T05:07:09.266Z,18.90
2018-06-30T05:09:36.976Z,18.90
2018-06-30T05:12:04.786Z,18.90
2018-06-30T05:14:32.593Z,18.90
2018-06-30T05:17:00.313Z,18.90
2018-06-30T05:19:27.915Z,18.90
2018-06-30T05:21:55.689Z,18.90
2018-06-30T05:24:24.492Z,18.90
2018-06-30T05:26:52.748Z,18.90
2018-06-30T05:29:20.414Z,18.90
2018-06-30T05:31:48.035Z,18.90
2018-06-30T05:34:15.725Z,18.90
2018-06-30T05:36:43.411Z,19.00
2018-06-30T05:39:11.107Z,19.00
2018-06-30T05:41:38.849Z,19.10
2018-06-30T05:44:06.460Z,19.10
2018-06-30T05:46:34.172Z,19.20
2018-06-30T05:49:01.796Z,19.30
2018-06-30T05:51:29.412Z,19.40
2018-06-30T05:53:57.000Z,19.50
2018-06-30T05:56:24.636Z,19.60
2018-06-30T05:58:52.670Z,19.70
2018-06-30T06:01:20.328Z,19.90
2018-06-30T06:03:47.945Z,20.00
2018-06-30T06:06:15.634Z,20.20
2018-06-30T06:08:43.377Z,20.30
2018-06-30T06:11:11.056Z,20.60
2018-06-30T06:13:38.722Z,20.80
2018-06-30T06:16:06.305Z,21.00
2018-06-30T06:18:33.960Z,21.30
2018-06-30T06:21:01.660Z,21.60
2018-06-30T06:23:29.268Z,21.90
2018-06-30T06:25:56.959Z,22.10
2018-06-30T06:28:24.588Z,22.40
2018-06-30T06:30:52.250Z,22.80
2018-06-30T06:33:19.964Z,23.10
2018-06-30T06:35:47.616Z,23.40
2018-06-30T06:38:15.358Z,23.80
2018-06-30T06:40:42.974Z,24.10
2018-06-30T06:43:11.126Z,24.50
2018-06-30T06:45:38.796Z,24.80
2018-06-30T06:50:34.492Z,25.30
2018-06-30T06:53:02.241Z,25.60
2018-06-30T06:55:29.873Z,25.80
2018-06-30T06:57:57.485Z,26.00
2018-06-30T07:00:25.172Z,26.20
2018-06-30T07:02:53.248Z,26.40
2018-06-30T07:05:20.868Z,26.60
2018-06-30T07:07:48.827Z,26.80
2018-06-30T07:10:16.530Z,26.90
2018-06-30T07:12:44.172Z,27.10
2018-06-30T07:15:11.928Z,27.30
2018-06-30T07:17:39.531Z,27.40
2018-06-30T07:20:07.205Z,27.60
2018-06-30T07:22:34.855Z,27.90
2018-06-30T07:25:02.689Z,28.10
2018-06-30T07:27:30.309Z,28.30
2018-06-30T07:29:57.912Z,28.50
2018-06-30T07:32:25.653Z,28.70
2018-06-30T07:34:53.833Z,29.00
2018-06-30T07:37:21.568Z,29.20
2018-06-30T07:39:57.722Z,29.50
2018-06-30T07:42:25.457Z,29.70
2018-06-30T07:44:53.180Z,30.00
2018-06-30T07:47:21.138Z,30.30
2018-06-30T07:49:49.571Z,30.50
2018-06-30T07:52:17.148Z,30.80
2018-06-30T07:54:44.784Z,31.00
2018-06-30T07:57:12.576Z,31.20
2018-06-30T07:59:40.238Z,31.50
2018-06-30T08:02:08.784Z,31.60
2018-06-30T08:07:04.549Z,32.00
2018-06-30T08:09:32.691Z,32.20
2018-06-30T08:12:00.313Z,32.30
2018-06-30T08:14:28.391Z,32.50
2018-06-30T08:16:56.128Z,32.60
2018-06-30T08:19:23.861Z,32.70
2018-06-30T08:21:51.535Z,32.90
2018-06-30T08:24:19.866Z,32.90
2018-06-30T08:26:47.996Z,33.10
2018-06-30T08:29:15.701Z,33.20
2018-06-30T08:31:45.189Z,33.30
2018-06-30T08:34:15.303Z,33.50
2018-06-30T08:36:43.347Z,33.60
2018-06-30T08:39:12.675Z,33.70
2018-06-30T08:41:40.601Z,33.70
2018-06-30T08:44:08.452Z,33.70
2018-06-30T08:46:36.536Z,33.70
2018-06-30T08:49:04.270Z,33.80
2018-06-30T08:51:31.874Z,33.90
2018-06-30T08:53:59.785Z,33.90
2018-06-30T08:56:27.936Z,33.90
2018-06-30T08:58:55.680Z,33.90
2018-06-30T09:01:23.845Z,34.00
2018-06-30T09:03:51.636Z,34.00
2018-06-30T09:06:19.394Z,34.10
2018-06-30T09:08:47.305Z,34.30
2018-06-30T09:11:14.968Z,34.30
2018-06-30T09:13:42.549Z,34.40
2018-06-30T09:16:10.286Z,34.50
2018-06-30T09:18:37.876Z,34.50
2018-06-30T09:21:06.622Z,34.50
2018-06-30T09:23:34.340Z,34.50
2018-06-30T09:26:01.968Z,34.50
2018-06-30T09:28:29.609Z,34.50
2018-06-30T09:30:57.201Z,34.40
2018-06-30T09:33:24.957Z,34.40
2018-06-30T09:35:52.610Z,34.40
2018-06-30T09:38:20.243Z,34.40
2018-06-30T09:40:47.953Z,34.50
2018-06-30T09:43:15.548Z,34.50
2018-06-30T09:45:43.152Z,34.60
2018-06-30T09:48:10.783Z,34.60
2018-06-30T09:53:06.468Z,34.80
2018-06-30T09:55:34.095Z,34.90
2018-06-30T09:58:01.782Z,35.00
2018-06-30T10:00:34.499Z,35.00
2018-06-30T10:03:02.132Z,35.00
2018-06-30T10:05:29.811Z,35.00
2018-06-30T10:07:57.466Z,35.10
2018-06-30T10:10:25.073Z,35.10
2018-06-30T10:12:52.667Z,35.30
2018-06-30T10:15:20.367Z,35.40
2018-06-30T10:17:47.985Z,35.50
2018-06-30T10:20:15.614Z,35.40
2018-06-30T10:22:43.227Z,35.30
2018-06-30T10:25:10.852Z,35.20
2018-06-30T10:27:38.453Z,35.00
2018-06-30T10:30:06.223Z,34.70
2018-06-30T10:32:34.189Z,34.50
2018-06-30T10:35:01.835Z,34.30
2018-06-30T10:37:29.509Z,34.10
2018-06-30T10:39:57.114Z,34.00
2018-06-30T10:42:24.711Z,33.90
2018-06-30T10:44:52.385Z,33.90
2018-06-30T10:47:20.267Z,33.90
2018-06-30T10:49:47.848Z,33.80
2018-06-30T10:52:15.443Z,33.70
2018-06-30T10:54:43.292Z,33.60
2018-06-30T10:57:11.044Z,33.60
2018-06-30T10:59:38.752Z,33.60
2018-06-30T11:02:06.441Z,33.60
2018-06-30T11:04:34.109Z,33.60
2018-06-30T11:07:01.825Z,33.60
2018-06-30T11:09:29.454Z,33.60
2018-06-30T11:11:57.069Z,33.60
2018-06-30T11:14:24.749Z,33.70
2018-06-30T11:16:52.621Z,33.80
2018-06-30T11:19:20.265Z,33.80
2018-06-30T11:21:47.978Z,33.80
2018-06-30T11:24:16.196Z,33.80
2018-06-30T11:26:43.863Z,33.90
2018-06-30T11:29:11.603Z,33.90
2018-06-30T11:31:39.336Z,33.90
2018-06-30T11:34:07.167Z,33.80
2018-06-30T11:36:34.821Z,33.70
2018-06-30T11:39:03.245Z,33.50
2018-06-30T11:41:31.001Z,33.50
2018-06-30T11:43:58.626Z,33.40
2018-06-30T11:46:26.490Z,33.40
2018-06-30T11:48:54.100Z,33.30
2018-06-30T11:51:21.810Z,33.30
2018-06-30T11:53:49.529Z,33.20
2018-06-30T11:56:17.336Z,33.20
2018-06-30T11:58:44.968Z,33.00
2018-06-30T12:01:12.619Z,32.90
2018-06-30T12:03:40.368Z,32.80
2018-06-30T12:06:08.000Z,32.60
2018-06-30T12:08:35.666Z,32.50
2018-06-30T12:11:03.544Z,32.40
2018-06-30T12:13:31.454Z,32.20
2018-06-30T12:15:59.274Z,32.00
2018-06-30T12:18:26.999Z,31.90
2018-06-30T12:20:54.709Z,31.80
2018-06-30T12:23:22.397Z,31.70
2018-06-30T12:25:50.060Z,31.70
2018-06-30T12:28:17.694Z,31.70
2018-06-30T12:30:45.310Z,31.70
2018-06-30T12:33:13.180Z,31.70
2018-06-30T12:35:40.788Z,31.80
2018-06-30T12:38:08.539Z,31.80
2018-06-30T12:40:36.168Z,31.80
2018-06-30T12:43:04.757Z,31.70
2018-06-30T12:45:32.597Z,31.70
2018-06-30T12:48:00.214Z,31.70
2018-06-30T12:52:55.843Z,31.90
2018-06-30T12:55:23.550Z,31.90
2018-06-30T12:57:51.208Z,31.90
2018-06-30T13:02:46.512Z,31.90
2018-06-30T13:05:14.175Z,31.90
2018-06-30T13:07:44.234Z,31.90
2018-06-30T13:10:11.914Z,31.80
2018-06-30T13:12:39.557Z,31.70
2018-06-30T13:15:07.242Z,31.60
2018-06-30T13:17:34.935Z,31.50
2018-06-30T13:20:02.616Z,31.40
2018-06-30T13:22:30.260Z,31.30
2018-06-30T13:24:57.871Z,31.20
2018-06-30T13:29:53.298Z,30.90
2018-06-30T13:32:20.900Z,30.80
2018-06-30T13:34:48.512Z,30.60
2018-06-30T13:37:16.116Z,30.50
2018-06-30T13:42:11.475Z,30.20
2018-06-30T13:44:39.092Z,30.00
2018-06-30T13:47:06.692Z,30.00
2018-06-30T13:49:34.296Z,29.90
2018-06-30T13:52:01.954Z,29.90
2018-06-30T13:54:29.616Z,29.90
2018-06-30T13:56:57.256Z,29.90
2018-06-30T13:59:24.890Z,29.90
2018-06-30T14:01:52.628Z,29.90
2018-06-30T14:04:20.383Z,29.80
2018-06-30T14:06:48.101Z,29.70
2018-06-30T14:09:15.767Z,29.60
2018-06-30T14:11:43.505Z,29.40
2018-06-30T14:14:11.109Z,29.20
2018-06-30T14:16:38.773Z,28.90
2018-06-30T14:19:06.898Z,28.70
2018-06-30T14:24:02.182Z,28.40
2018-06-30T14:26:29.819Z,28.20
2018-06-30T14:28:58.253Z,28.20
2018-06-30T14:33:56.793Z,28.10
2018-06-30T14:36:24.649Z,28.00
2018-06-30T14:41:20.315Z,27.90
2018-06-30T14:43:47.988Z,27.80
2018-06-30T14:46:15.619Z,27.70
2018-06-30T14:48:43.258Z,27.60
2018-06-30T14:51:10.977Z,27.50
2018-06-30T14:53:38.612Z,27.40
2018-06-30T14:56:06.739Z,27.40
2018-06-30T14:58:35.175Z,27.30
2018-06-30T15:01:02.803Z,27.30
2018-06-30T15:03:30.445Z,27.20
2018-06-30T15:05:58.074Z,27.20
2018-06-30T15:08:25.747Z,27.20
2018-06-30T15:13:21.082Z,27.10
2018-06-30T15:18:16.392Z,27.00
2018-06-30T15:20:43.959Z,27.00
2018-06-30T15:23:11.570Z,26.90
2018-06-30T15:28:06.946Z,26.90
2018-06-30T15:30:34.599Z,26.90
2018-06-30T15:33:02.244Z,26.80
2018-06-30T15:35:29.865Z,26.80
2018-06-30T15:37:57.596Z,26.80
2018-06-30T15:40:25.196Z,26.70
2018-06-30T15:42:52.828Z,26.70
2018-06-30T15:45:20.671Z,26.70
2018-06-30T15:47:48.459Z,26.70
2018-06-30T15:50:16.739Z,26.80
2018-06-30T15:52:44.586Z,26.80
2018-06-30T16:00:08.798Z,26.90
2018-06-30T16:02:36.461Z,27.00
2018-06-30T16:05:04.229Z,27.00
2018-06-30T16:07:31.993Z,27.00
2018-06-30T16:09:59.757Z,27.00
2018-06-30T16:12:27.461Z,27.00
2018-06-30T16:14:55.612Z,27.00
2018-06-30T16:17:23.509Z,27.00
2018-06-30T16:19:51.149Z,27.00
2018-06-30T16:22:18.741Z,27.00
2018-06-30T16:24:46.469Z,26.90
2018-06-30T16:27:14.162Z,26.90
2018-06-30T16:29:41.945Z,26.80
2018-06-30T16:32:09.560Z,26.70
2018-06-30T16:34:37.284Z,26.60
2018-06-30T16:41:04.657Z,26.50
2018-06-30T16:43:32.451Z,26.40
2018-06-30T16:46:00.008Z,26.40
2018-06-30T16:48:27.927Z,26.40
2018-06-30T16:50:55.604Z,26.40
2018-06-30T16:53:23.304Z,26.50
2018-06-30T16:55:50.932Z,26.50
2018-06-30T16:58:18.579Z,26.50
2018-06-30T17:00:46.201Z,26.50
2018-06-30T17:03:13.764Z,26.50
2018-06-30T17:05:41.394Z,26.50
2018-06-30T17:08:09.059Z,26.40
2018-06-30T17:13:04.579Z,26.30
2018-06-30T17:15:32.203Z,26.10
2018-06-30T17:17:59.920Z,26.00
2018-06-30T17:20:27.520Z,25.90
2018-06-30T17:22:55.281Z,25.80
2018-06-30T17:25:22.887Z,25.70
2018-06-30T17:27:50.672Z,25.70
2018-06-30T17:30:18.270Z,25.60
2018-06-30T17:32:45.928Z,25.60
2018-06-30T17:35:13.559Z,25.60
2018-06-30T17:37:41.216Z,25.60
2018-06-30T17:40:08.859Z,25.60
2018-06-30T17:42:36.539Z,25.50
2018-06-30T17:45:05.471Z,25.50
2018-06-30T17:47:33.068Z,25.50
2018-06-30T17:50:00.692Z,25.40
2018-06-30T17:52:28.376Z,25.30
2018-06-30T17:54:56.072Z,25.20
2018-06-30T17:57:24.046Z,25.10
2018-06-30T17:59:51.672Z,25.10
2018-06-30T18:02:19.347Z,25.00
2018-06-30T18:04:47.028Z,24.90
2018-06-30T18:07:14.720Z,24.80
2018-06-30T18:09:42.395Z,24.70
2018-06-30T18:12:10.457Z,24.60
2018-06-30T18:14:38.107Z,24.60
2018-06-30T18:17:05.827Z,24.50
2018-06-30T18:19:33.513Z,24.40
2018-06-30T18:22:01.098Z,24.40
2018-06-30T18:24:28.744Z,24.30
2018-06-30T18:26:56.392Z,24.30
2018-06-30T18:29:24.028Z,24.30
2018-06-30T18:31:51.619Z,24.20
2018-06-30T18:34:19.456Z,24.20
2018-06-30T18:36:47.072Z,24.20
2018-06-30T18:39:14.706Z,24.20
2018-06-30T18:41:42.484Z,24.10
2018-06-30T18:44:10.052Z,24.10
2018-06-30T18:46:37.736Z,24.10
2018-06-30T18:49:05.678Z,24.10
2018-06-30T18:51:33.308Z,24.10
2018-06-30T18:56:28.883Z,24.10
2018-06-30T18:58:56.538Z,24.10
2018-06-30T19:01:24.581Z,24.10
2018-06-30T19:03:52.257Z,24.10
2018-06-30T19:06:19.916Z,24.10
2018-06-30T19:08:47.767Z,24.10
2018-06-30T19:11:15.437Z,24.10
2018-06-30T19:13:43.211Z,24.10
2018-06-30T19:18:46.524Z,24.00
2018-06-30T19:21:14.128Z,24.00
2018-06-30T19:23:46.908Z,23.90
2018-06-30T19:28:53.615Z,23.90
2018-06-30T19:31:21.247Z,23.80
2018-06-30T19:33:48.843Z,23.80
2018-06-30T19:36:16.508Z,23.70
2018-06-30T19:38:44.210Z,23.70
2018-06-30T19:41:12.034Z,23.60
2018-06-30T19:48:35.508Z,23.60
2018-06-30T19:51:03.222Z,23.50
2018-06-30T19:53:30.867Z,23.50
2018-06-30T19:55:58.533Z,23.40
2018-06-30T20:08:11.999Z,23.40
2018-06-30T20:10:39.653Z,23.30
2018-06-30T20:13:07.308Z,22.80
2018-06-30T20:18:02.830Z,22.60
2018-06-30T20:25:26.190Z,22.40
2018-06-30T20:27:53.683Z,22.40
2018-06-30T20:30:21.289Z,22.30
2018-06-30T20:32:48.914Z,22.30
2018-06-30T20:35:16.517Z,22.20
2018-06-30T20:37:44.428Z,22.10
2018-06-30T20:40:12.036Z,22.10
2018-06-30T20:42:39.631Z,22.10
2018-06-30T20:45:12.222Z,22.00
2018-06-30T20:47:39.879Z,21.90
2018-06-30T20:50:07.512Z,21.90
2018-06-30T20:52:35.132Z,21.80
2018-06-30T20:55:02.796Z,21.70
2018-06-30T20:57:30.425Z,21.70
2018-06-30T20:59:58.046Z,21.60
2018-06-30T21:02:25.650Z,21.60
2018-06-30T21:04:53.265Z,21.50
2018-06-30T21:07:21.049Z,21.50
2018-06-30T21:09:48.959Z,21.40
2018-06-30T21:12:16.756Z,21.40
2018-06-30T21:17:12.024Z,21.30
2018-06-30T21:19:39.652Z,21.20
2018-06-30T21:22:07.351Z,21.10
2018-06-30T21:24:34.951Z,21.10
2018-06-30T21:27:02.588Z,21.00
2018-06-30T21:29:30.182Z,21.00
2018-06-30T21:31:57.826Z,20.90
2018-06-30T21:34:25.464Z,20.80
2018-06-30T21:36:53.269Z,20.80
2018-06-30T21:39:20.896Z,20.70
2018-06-30T21:46:43.944Z,20.60
2018-06-30T21:49:11.563Z,20.50
2018-06-30T21:51:39.238Z,20.50
2018-06-30T21:54:08.352Z,20.40
2018-06-30T21:56:35.965Z,20.40
2018-06-30T22:01:31.755Z,20.20
2018-06-30T22:03:59.642Z,20.20
2018-06-30T22:06:27.220Z,20.10
2018-06-30T22:08:54.872Z,20.10
2018-06-30T22:11:22.880Z,20.00
2018-06-30T22:16:18.661Z,19.90
2018-06-30T22:21:14.390Z,19.90
2018-06-30T22:23:42.165Z,19.80
2018-06-30T22:31:05.384Z,19.70
2018-06-30T22:36:00.654Z,19.60
2018-06-30T22:38:28.473Z,19.50
2018-06-30T22:40:56.142Z,19.50
2018-06-30T22:43:23.804Z,19.40
2018-06-30T22:48:19.725Z,19.30
2018-06-30T22:50:47.397Z,19.30
2018-06-30T22:53:15.029Z,19.20
2018-06-30T22:55:42.719Z,19.20
2018-06-30T22:58:10.379Z,19.20
2018-06-30T23:03:10.038Z,19.10
2018-06-30T23:05:38.341Z,19.00
2018-06-30T23:10:33.745Z,18.90
2018-06-30T23:13:01.405Z,18.90
2018-06-30T23:15:29.065Z,18.80
2018-06-30T23:17:56.712Z,18.80
2018-06-30T23:20:24.399Z,18.80
2018-06-30T23:23:05.888Z,18.70
2018-06-30T23:25:34.352Z,18.70
2018-06-30T23:28:02.472Z,18.60
2018-06-30T23:30:30.555Z,18.60
2018-06-30T23:32:58.327Z,18.50
2018-06-30T23:35:27.117Z,18.50
2018-06-30T23:37:56.063Z,18.50
2018-06-30T23:40:23.711Z,18.40
2018-06-30T23:45:19.840Z,18.30
2018-06-30T23:47:47.911Z,18.30
2018-06-30T23:50:15.839Z,18.20
2018-06-30T23:52:43.471Z,18.20
2018-06-30T23:57:39.370Z,18.10
